sensor_id;sensor_type;location;lat;lon;timestamp;P1;durP1;ratioP1;P2;durP2;ratioP2
7737;SDS011;29398;45.328;5.558;2023-12-28T00:00:00;21.77;;;15.32;;
7737;SDS011;29398;45.328;5.558;2023-12-28T00:01:04;22.58;;;15.75;;
7737;SDS011;29398;45.328;5.558;2023-12-28T00:02:05;23.40;;;15.65;;
7737;SDS011;29398;45.328;5.558;2023-12-28T00:03:07;19.48;;;15.60;;
7737;SDS011;29398;45.328;5.558;2023-12-28T00:04:08;20.90;;;15.20;;
7737;SDS011;29398;45.328;5.558;2023-12-28T00:05:10;21.58;;;15.68;;
7737;SDS011;29398;45.328;5.558;2023-12-28T00:06:12;21.27;;;15.65;;
7737;SDS011;29398;45.328;5.558;2023-12-28T00:07:14;27.15;;;16.10;;
7737;SDS011;29398;45.328;5.558;2023-12-28T00:08:16;18.70;;;14.13;;
7737;SDS011;29398;45.328;5.558;2023-12-28T00:09:18;23.13;;;15.80;;
7737;SDS011;29398;45.328;5.558;2023-12-28T00:10:19;20.13;;;14.55;;
7737;SDS011;29398;45.328;5.558;2023-12-28T00:11:20;19.42;;;14.48;;
7737;SDS011;29398;45.328;5.558;2023-12-28T00:12:23;17.42;;;13.68;;
7737;SDS011;29398;45.328;5.558;2023-12-28T00:13:24;21.10;;;14.52;;
7737;SDS011;29398;45.328;5.558;2023-12-28T00:14:26;19.33;;;14.70;;
7737;SDS011;29398;45.328;5.558;2023-12-28T00:15:27;20.23;;;14.50;;
7737;SDS011;29398;45.328;5.558;2023-12-28T00:16:28;18.85;;;14.27;;
7737;SDS011;29398;45.328;5.558;2023-12-28T00:17:33;18.73;;;14.18;;
7737;SDS011;29398;45.328;5.558;2023-12-28T00:18:35;20.13;;;14.90;;
7737;SDS011;29398;45.328;5.558;2023-12-28T00:19:37;20.00;;;14.82;;
7737;SDS011;29398;45.328;5.558;2023-12-28T00:20:38;19.17;;;14.55;;
7737;SDS011;29398;45.328;5.558;2023-12-28T00:21:40;16.80;;;14.18;;
7737;SDS011;29398;45.328;5.558;2023-12-28T00:22:42;23.05;;;14.23;;
7737;SDS011;29398;45.328;5.558;2023-12-28T00:23:43;18.42;;;13.27;;
7737;SDS011;29398;45.328;5.558;2023-12-28T00:24:45;21.00;;;14.40;;
7737;SDS011;29398;45.328;5.558;2023-12-28T00:25:46;24.55;;;14.77;;
7737;SDS011;29398;45.328;5.558;2023-12-28T00:26:48;17.33;;;13.85;;
7737;SDS011;29398;45.328;5.558;2023-12-28T00:27:49;19.92;;;14.30;;
7737;SDS011;29398;45.328;5.558;2023-12-28T00:28:51;17.77;;;14.38;;
7737;SDS011;29398;45.328;5.558;2023-12-28T00:29:53;17.55;;;14.55;;
7737;SDS011;29398;45.328;5.558;2023-12-28T00:30:55;21.42;;;14.45;;
7737;SDS011;29398;45.328;5.558;2023-12-28T00:31:56;17.45;;;13.63;;
7737;SDS011;29398;45.328;5.558;2023-12-28T00:32:58;17.27;;;13.60;;
7737;SDS011;29398;45.328;5.558;2023-12-28T00:33:59;15.48;;;12.80;;
7737;SDS011;29398;45.328;5.558;2023-12-28T00:35:00;15.38;;;13.00;;
7737;SDS011;29398;45.328;5.558;2023-12-28T00:36:02;18.27;;;14.40;;
7737;SDS011;29398;45.328;5.558;2023-12-28T00:37:06;20.60;;;14.00;;
7737;SDS011;29398;45.328;5.558;2023-12-28T00:38:08;17.58;;;13.55;;
7737;SDS011;29398;45.328;5.558;2023-12-28T00:39:09;17.88;;;13.25;;
7737;SDS011;29398;45.328;5.558;2023-12-28T00:40:11;18.98;;;13.05;;
7737;SDS011;29398;45.328;5.558;2023-12-28T00:41:12;20.42;;;14.23;;
7737;SDS011;29398;45.328;5.558;2023-12-28T00:42:14;16.75;;;13.65;;
7737;SDS011;29398;45.328;5.558;2023-12-28T00:43:15;19.63;;;13.05;;
7737;SDS011;29398;45.328;5.558;2023-12-28T00:44:17;21.98;;;14.52;;
7737;SDS011;29398;45.328;5.558;2023-12-28T00:45:18;22.42;;;14.13;;
7737;SDS011;29398;45.328;5.558;2023-12-28T00:46:19;15.38;;;12.90;;
7737;SDS011;29398;45.328;5.558;2023-12-28T00:47:21;18.42;;;13.52;;
7737;SDS011;29398;45.328;5.558;2023-12-28T00:48:22;20.83;;;12.52;;
7737;SDS011;29398;45.328;5.558;2023-12-28T00:49:24;13.48;;;11.63;;
7737;SDS011;29398;45.328;5.558;2023-12-28T00:50:25;16.85;;;12.43;;
7737;SDS011;29398;45.328;5.558;2023-12-28T00:51:32;17.85;;;13.00;;
7737;SDS011;29398;45.328;5.558;2023-12-28T00:52:34;16.42;;;12.65;;
7737;SDS011;29398;45.328;5.558;2023-12-28T00:53:36;16.95;;;13.23;;
7737;SDS011;29398;45.328;5.558;2023-12-28T00:54:37;21.38;;;12.68;;
7737;SDS011;29398;45.328;5.558;2023-12-28T00:55:39;17.00;;;12.80;;
7737;SDS011;29398;45.328;5.558;2023-12-28T00:56:40;19.42;;;12.90;;
7737;SDS011;29398;45.328;5.558;2023-12-28T00:57:42;18.48;;;12.30;;
7737;SDS011;29398;45.328;5.558;2023-12-28T00:58:43;17.30;;;12.70;;
7737;SDS011;29398;45.328;5.558;2023-12-28T00:59:45;14.48;;;12.35;;
7737;SDS011;29398;45.328;5.558;2023-12-28T01:00:46;20.05;;;12.38;;
7737;SDS011;29398;45.328;5.558;2023-12-28T01:01:48;18.88;;;13.57;;
7737;SDS011;29398;45.328;5.558;2023-12-28T01:02:49;17.08;;;11.93;;
7737;SDS011;29398;45.328;5.558;2023-12-28T01:03:51;20.25;;;13.10;;
7737;SDS011;29398;45.328;5.558;2023-12-28T01:04:54;16.50;;;13.00;;
7737;SDS011;29398;45.328;5.558;2023-12-28T01:05:56;19.08;;;12.40;;
7737;SDS011;29398;45.328;5.558;2023-12-28T01:06:57;17.90;;;12.20;;
7737;SDS011;29398;45.328;5.558;2023-12-28T01:08:03;18.63;;;12.68;;
7737;SDS011;29398;45.328;5.558;2023-12-28T01:09:05;14.60;;;12.38;;
7737;SDS011;29398;45.328;5.558;2023-12-28T01:10:08;15.45;;;12.02;;
7737;SDS011;29398;45.328;5.558;2023-12-28T01:11:10;16.23;;;13.10;;
7737;SDS011;29398;45.328;5.558;2023-12-28T01:12:14;15.98;;;12.65;;
7737;SDS011;29398;45.328;5.558;2023-12-28T01:13:15;16.42;;;12.10;;
7737;SDS011;29398;45.328;5.558;2023-12-28T01:14:16;20.17;;;12.65;;
7737;SDS011;29398;45.328;5.558;2023-12-28T01:15:18;15.73;;;11.70;;
7737;SDS011;29398;45.328;5.558;2023-12-28T01:16:20;20.90;;;13.07;;
7737;SDS011;29398;45.328;5.558;2023-12-28T01:17:22;16.70;;;12.55;;
7737;SDS011;29398;45.328;5.558;2023-12-28T01:18:23;16.10;;;12.68;;
7737;SDS011;29398;45.328;5.558;2023-12-28T01:19:26;15.65;;;12.82;;
7737;SDS011;29398;45.328;5.558;2023-12-28T01:20:27;16.85;;;12.90;;
7737;SDS011;29398;45.328;5.558;2023-12-28T01:21:28;17.98;;;11.82;;
7737;SDS011;29398;45.328;5.558;2023-12-28T01:22:30;17.58;;;13.50;;
7737;SDS011;29398;45.328;5.558;2023-12-28T01:23:32;14.77;;;12.38;;
7737;SDS011;29398;45.328;5.558;2023-12-28T01:24:34;17.25;;;12.90;;
7737;SDS011;29398;45.328;5.558;2023-12-28T01:25:35;21.13;;;12.88;;
7737;SDS011;29398;45.328;5.558;2023-12-28T01:26:37;17.10;;;12.30;;
7737;SDS011;29398;45.328;5.558;2023-12-28T01:27:38;14.38;;;11.15;;
7737;SDS011;29398;45.328;5.558;2023-12-28T01:28:40;14.95;;;11.98;;
7737;SDS011;29398;45.328;5.558;2023-12-28T01:29:43;14.13;;;12.25;;
7737;SDS011;29398;45.328;5.558;2023-12-28T01:30:45;16.60;;;12.18;;
7737;SDS011;29398;45.328;5.558;2023-12-28T01:31:46;16.00;;;11.93;;
7737;SDS011;29398;45.328;5.558;2023-12-28T01:32:48;16.73;;;11.68;;
7737;SDS011;29398;45.328;5.558;2023-12-28T01:33:49;16.88;;;12.55;;
7737;SDS011;29398;45.328;5.558;2023-12-28T01:34:51;16.60;;;12.25;;
7737;SDS011;29398;45.328;5.558;2023-12-28T01:35:52;16.65;;;13.18;;
7737;SDS011;29398;45.328;5.558;2023-12-28T01:36:54;13.43;;;11.90;;
7737;SDS011;29398;45.328;5.558;2023-12-28T01:37:55;15.15;;;12.38;;
7737;SDS011;29398;45.328;5.558;2023-12-28T01:38:59;15.52;;;12.45;;
7737;SDS011;29398;45.328;5.558;2023-12-28T01:40:00;13.88;;;12.25;;
7737;SDS011;29398;45.328;5.558;2023-12-28T01:41:21;15.93;;;12.43;;
7737;SDS011;29398;45.328;5.558;2023-12-28T01:42:22;16.10;;;11.88;;
7737;SDS011;29398;45.328;5.558;2023-12-28T01:43:24;15.02;;;11.70;;
7737;SDS011;29398;45.328;5.558;2023-12-28T01:44:25;16.88;;;11.50;;
7737;SDS011;29398;45.328;5.558;2023-12-28T01:45:27;17.00;;;12.40;;
7737;SDS011;29398;45.328;5.558;2023-12-28T01:46:28;17.45;;;11.95;;
7737;SDS011;29398;45.328;5.558;2023-12-28T01:47:31;13.43;;;11.80;;
7737;SDS011;29398;45.328;5.558;2023-12-28T01:48:50;15.77;;;11.97;;
7737;SDS011;29398;45.328;5.558;2023-12-28T01:49:53;15.43;;;12.32;;
7737;SDS011;29398;45.328;5.558;2023-12-28T01:50:54;15.38;;;11.43;;
7737;SDS011;29398;45.328;5.558;2023-12-28T01:51:57;14.00;;;11.10;;
7737;SDS011;29398;45.328;5.558;2023-12-28T01:53:00;15.48;;;11.90;;
7737;SDS011;29398;45.328;5.558;2023-12-28T01:54:05;17.25;;;12.60;;
7737;SDS011;29398;45.328;5.558;2023-12-28T01:55:06;17.55;;;12.23;;
7737;SDS011;29398;45.328;5.558;2023-12-28T01:56:10;15.93;;;12.00;;
7737;SDS011;29398;45.328;5.558;2023-12-28T01:57:11;17.70;;;11.57;;
7737;SDS011;29398;45.328;5.558;2023-12-28T01:58:14;15.43;;;12.63;;
7737;SDS011;29398;45.328;5.558;2023-12-28T01:59:16;17.98;;;12.75;;
7737;SDS011;29398;45.328;5.558;2023-12-28T02:00:18;16.85;;;12.50;;
7737;SDS011;29398;45.328;5.558;2023-12-28T02:01:22;16.27;;;12.38;;
7737;SDS011;29398;45.328;5.558;2023-12-28T02:02:26;14.95;;;11.77;;
7737;SDS011;29398;45.328;5.558;2023-12-28T02:03:27;18.40;;;12.32;;
7737;SDS011;29398;45.328;5.558;2023-12-28T02:04:30;16.55;;;12.43;;
7737;SDS011;29398;45.328;5.558;2023-12-28T02:05:31;17.30;;;12.70;;
7737;SDS011;29398;45.328;5.558;2023-12-28T02:06:34;15.75;;;12.32;;
7737;SDS011;29398;45.328;5.558;2023-12-28T02:07:35;17.92;;;12.40;;
7737;SDS011;29398;45.328;5.558;2023-12-28T02:08:38;15.90;;;12.13;;
7737;SDS011;29398;45.328;5.558;2023-12-28T02:09:40;16.10;;;12.55;;
7737;SDS011;29398;45.328;5.558;2023-12-28T02:10:43;15.27;;;12.70;;
7737;SDS011;29398;45.328;5.558;2023-12-28T02:11:44;15.90;;;12.57;;
7737;SDS011;29398;45.328;5.558;2023-12-28T02:12:46;17.33;;;12.45;;
7737;SDS011;29398;45.328;5.558;2023-12-28T02:13:47;18.63;;;13.45;;
7737;SDS011;29398;45.328;5.558;2023-12-28T02:14:49;16.55;;;12.63;;
7737;SDS011;29398;45.328;5.558;2023-12-28T02:15:51;18.52;;;12.95;;
7737;SDS011;29398;45.328;5.558;2023-12-28T02:17:00;17.38;;;13.43;;
7737;SDS011;29398;45.328;5.558;2023-12-28T02:18:05;18.65;;;13.38;;
7737;SDS011;29398;45.328;5.558;2023-12-28T02:19:15;20.08;;;13.00;;
7737;SDS011;29398;45.328;5.558;2023-12-28T02:20:26;16.77;;;12.45;;
7737;SDS011;29398;45.328;5.558;2023-12-28T02:21:30;15.30;;;12.52;;
7737;SDS011;29398;45.328;5.558;2023-12-28T02:22:33;16.92;;;13.45;;
7737;SDS011;29398;45.328;5.558;2023-12-28T02:23:36;18.77;;;13.35;;
7737;SDS011;29398;45.328;5.558;2023-12-28T02:26:04;19.85;;;13.25;;
7737;SDS011;29398;45.328;5.558;2023-12-28T02:27:06;17.88;;;13.85;;
7737;SDS011;29398;45.328;5.558;2023-12-28T02:28:07;15.68;;;13.30;;
7737;SDS011;29398;45.328;5.558;2023-12-28T02:29:10;15.95;;;12.90;;
7737;SDS011;29398;45.328;5.558;2023-12-28T02:30:11;16.92;;;13.52;;
7737;SDS011;29398;45.328;5.558;2023-12-28T02:31:16;16.23;;;13.45;;
7737;SDS011;29398;45.328;5.558;2023-12-28T02:32:22;16.42;;;12.35;;
7737;SDS011;29398;45.328;5.558;2023-12-28T02:33:34;15.07;;;12.52;;
7737;SDS011;29398;45.328;5.558;2023-12-28T02:34:43;15.57;;;13.18;;
7737;SDS011;29398;45.328;5.558;2023-12-28T02:35:51;17.38;;;13.48;;
7737;SDS011;29398;45.328;5.558;2023-12-28T02:36:55;18.80;;;13.50;;
7737;SDS011;29398;45.328;5.558;2023-12-28T02:37:59;16.65;;;13.15;;
7737;SDS011;29398;45.328;5.558;2023-12-28T02:39:05;17.88;;;14.07;;
7737;SDS011;29398;45.328;5.558;2023-12-28T02:40:10;17.27;;;13.80;;
7737;SDS011;29398;45.328;5.558;2023-12-28T02:41:12;16.88;;;12.85;;
7737;SDS011;29398;45.328;5.558;2023-12-28T02:42:14;16.48;;;12.93;;
7737;SDS011;29398;45.328;5.558;2023-12-28T02:43:15;17.05;;;13.07;;
7737;SDS011;29398;45.328;5.558;2023-12-28T02:44:17;16.83;;;12.88;;
7737;SDS011;29398;45.328;5.558;2023-12-28T02:45:20;15.90;;;13.35;;
7737;SDS011;29398;45.328;5.558;2023-12-28T02:46:22;17.70;;;12.85;;
7737;SDS011;29398;45.328;5.558;2023-12-28T02:47:23;16.40;;;13.23;;
7737;SDS011;29398;45.328;5.558;2023-12-28T02:48:24;15.82;;;13.18;;
7737;SDS011;29398;45.328;5.558;2023-12-28T02:49:27;16.48;;;12.90;;
7737;SDS011;29398;45.328;5.558;2023-12-28T02:50:28;16.58;;;13.48;;
7737;SDS011;29398;45.328;5.558;2023-12-28T02:51:30;16.25;;;13.02;;
7737;SDS011;29398;45.328;5.558;2023-12-28T02:52:31;19.05;;;13.52;;
7737;SDS011;29398;45.328;5.558;2023-12-28T02:53:32;14.52;;;12.85;;
7737;SDS011;29398;45.328;5.558;2023-12-28T02:54:35;17.23;;;13.82;;
7737;SDS011;29398;45.328;5.558;2023-12-28T02:55:37;17.25;;;13.88;;
7737;SDS011;29398;45.328;5.558;2023-12-28T02:56:39;20.73;;;15.80;;
7737;SDS011;29398;45.328;5.558;2023-12-28T02:57:41;20.48;;;14.75;;
7737;SDS011;29398;45.328;5.558;2023-12-28T02:58:44;21.55;;;15.85;;
7737;SDS011;29398;45.328;5.558;2023-12-28T02:59:45;21.30;;;15.82;;
7737;SDS011;29398;45.328;5.558;2023-12-28T03:00:47;19.90;;;16.30;;
7737;SDS011;29398;45.328;5.558;2023-12-28T03:01:50;18.45;;;15.00;;
7737;SDS011;29398;45.328;5.558;2023-12-28T03:02:52;19.85;;;14.85;;
7737;SDS011;29398;45.328;5.558;2023-12-28T03:03:55;22.85;;;15.82;;
7737;SDS011;29398;45.328;5.558;2023-12-28T03:04:56;20.35;;;15.40;;
7737;SDS011;29398;45.328;5.558;2023-12-28T03:05:58;21.33;;;15.30;;
7737;SDS011;29398;45.328;5.558;2023-12-28T03:06:59;18.42;;;15.52;;
7737;SDS011;29398;45.328;5.558;2023-12-28T03:08:02;16.15;;;13.38;;
7737;SDS011;29398;45.328;5.558;2023-12-28T03:09:03;20.60;;;16.08;;
7737;SDS011;29398;45.328;5.558;2023-12-28T03:10:07;21.80;;;15.80;;
7737;SDS011;29398;45.328;5.558;2023-12-28T03:11:10;17.75;;;14.68;;
7737;SDS011;29398;45.328;5.558;2023-12-28T03:12:12;18.83;;;15.38;;
7737;SDS011;29398;45.328;5.558;2023-12-28T03:13:13;22.35;;;16.25;;
7737;SDS011;29398;45.328;5.558;2023-12-28T03:14:15;19.50;;;16.17;;
7737;SDS011;29398;45.328;5.558;2023-12-28T03:15:16;22.40;;;15.70;;
7737;SDS011;29398;45.328;5.558;2023-12-28T03:16:18;23.63;;;17.77;;
7737;SDS011;29398;45.328;5.558;2023-12-28T03:17:19;23.17;;;17.05;;
7737;SDS011;29398;45.328;5.558;2023-12-28T03:18:39;23.03;;;17.67;;
7737;SDS011;29398;45.328;5.558;2023-12-28T03:19:41;24.83;;;18.55;;
7737;SDS011;29398;45.328;5.558;2023-12-28T03:20:42;24.10;;;19.40;;
7737;SDS011;29398;45.328;5.558;2023-12-28T03:21:44;26.92;;;20.85;;
7737;SDS011;29398;45.328;5.558;2023-12-28T03:22:45;26.95;;;20.80;;
7737;SDS011;29398;45.328;5.558;2023-12-28T03:23:47;25.85;;;20.27;;
7737;SDS011;29398;45.328;5.558;2023-12-28T03:24:48;28.20;;;22.58;;
7737;SDS011;29398;45.328;5.558;2023-12-28T03:25:50;28.17;;;22.63;;
7737;SDS011;29398;45.328;5.558;2023-12-28T03:26:53;31.42;;;23.73;;
7737;SDS011;29398;45.328;5.558;2023-12-28T03:27:55;28.25;;;22.00;;
7737;SDS011;29398;45.328;5.558;2023-12-28T03:28:56;32.95;;;23.92;;
7737;SDS011;29398;45.328;5.558;2023-12-28T03:29:58;33.30;;;24.08;;
7737;SDS011;29398;45.328;5.558;2023-12-28T03:31:01;31.50;;;22.92;;
7737;SDS011;29398;45.328;5.558;2023-12-28T03:32:02;31.33;;;23.67;;
7737;SDS011;29398;45.328;5.558;2023-12-28T03:33:05;29.92;;;23.30;;
7737;SDS011;29398;45.328;5.558;2023-12-28T03:34:06;31.23;;;23.92;;
7737;SDS011;29398;45.328;5.558;2023-12-28T03:35:09;28.98;;;23.30;;
7737;SDS011;29398;45.328;5.558;2023-12-28T03:36:17;27.95;;;21.92;;
7737;SDS011;29398;45.328;5.558;2023-12-28T03:37:19;28.95;;;22.48;;
7737;SDS011;29398;45.328;5.558;2023-12-28T03:38:20;27.70;;;22.08;;
7737;SDS011;29398;45.328;5.558;2023-12-28T03:39:23;29.73;;;22.38;;
7737;SDS011;29398;45.328;5.558;2023-12-28T03:40:24;28.95;;;22.40;;
7737;SDS011;29398;45.328;5.558;2023-12-28T03:41:26;27.80;;;21.95;;
7737;SDS011;29398;45.328;5.558;2023-12-28T03:42:28;28.80;;;22.98;;
7737;SDS011;29398;45.328;5.558;2023-12-28T03:43:29;30.00;;;22.77;;
7737;SDS011;29398;45.328;5.558;2023-12-28T03:44:31;27.27;;;22.02;;
7737;SDS011;29398;45.328;5.558;2023-12-28T03:45:32;28.00;;;21.83;;
7737;SDS011;29398;45.328;5.558;2023-12-28T03:46:34;28.05;;;22.98;;
7737;SDS011;29398;45.328;5.558;2023-12-28T03:47:36;28.33;;;22.55;;
7737;SDS011;29398;45.328;5.558;2023-12-28T03:48:39;26.25;;;20.50;;
7737;SDS011;29398;45.328;5.558;2023-12-28T03:49:40;27.13;;;21.73;;
7737;SDS011;29398;45.328;5.558;2023-12-28T03:50:42;26.55;;;21.42;;
7737;SDS011;29398;45.328;5.558;2023-12-28T03:51:43;28.15;;;22.10;;
7737;SDS011;29398;45.328;5.558;2023-12-28T03:52:45;28.40;;;20.98;;
7737;SDS011;29398;45.328;5.558;2023-12-28T03:53:46;25.63;;;20.77;;
7737;SDS011;29398;45.328;5.558;2023-12-28T03:54:48;27.67;;;21.65;;
7737;SDS011;29398;45.328;5.558;2023-12-28T03:55:49;26.40;;;22.20;;
7737;SDS011;29398;45.328;5.558;2023-12-28T03:56:50;28.83;;;22.33;;
7737;SDS011;29398;45.328;5.558;2023-12-28T03:57:55;27.67;;;21.75;;
7737;SDS011;29398;45.328;5.558;2023-12-28T03:58:56;26.65;;;20.88;;
7737;SDS011;29398;45.328;5.558;2023-12-28T03:59:58;31.58;;;21.33;;
7737;SDS011;29398;45.328;5.558;2023-12-28T04:00:59;28.38;;;21.88;;
7737;SDS011;29398;45.328;5.558;2023-12-28T04:02:01;25.45;;;21.17;;
7737;SDS011;29398;45.328;5.558;2023-12-28T04:03:03;27.15;;;20.27;;
7737;SDS011;29398;45.328;5.558;2023-12-28T04:04:04;27.65;;;22.02;;
7737;SDS011;29398;45.328;5.558;2023-12-28T04:05:07;27.65;;;20.92;;
7737;SDS011;29398;45.328;5.558;2023-12-28T04:06:08;24.83;;;21.33;;
7737;SDS011;29398;45.328;5.558;2023-12-28T04:07:10;30.50;;;21.70;;
7737;SDS011;29398;45.328;5.558;2023-12-28T04:08:11;25.45;;;22.23;;
7737;SDS011;29398;45.328;5.558;2023-12-28T04:09:13;24.90;;;20.20;;
7737;SDS011;29398;45.328;5.558;2023-12-28T04:10:18;24.73;;;20.77;;
7737;SDS011;29398;45.328;5.558;2023-12-28T04:11:29;29.17;;;20.83;;
7737;SDS011;29398;45.328;5.558;2023-12-28T04:12:31;27.60;;;20.52;;
7737;SDS011;29398;45.328;5.558;2023-12-28T04:13:34;28.48;;;22.13;;
7737;SDS011;29398;45.328;5.558;2023-12-28T04:14:36;23.90;;;20.38;;
7737;SDS011;29398;45.328;5.558;2023-12-28T04:15:37;26.98;;;21.63;;
7737;SDS011;29398;45.328;5.558;2023-12-28T04:16:43;25.48;;;20.38;;
7737;SDS011;29398;45.328;5.558;2023-12-28T04:17:44;25.67;;;20.92;;
7737;SDS011;29398;45.328;5.558;2023-12-28T04:18:46;28.17;;;21.20;;
7737;SDS011;29398;45.328;5.558;2023-12-28T04:19:47;24.45;;;20.33;;
7737;SDS011;29398;45.328;5.558;2023-12-28T04:20:50;25.25;;;21.17;;
7737;SDS011;29398;45.328;5.558;2023-12-28T04:21:51;25.60;;;20.65;;
7737;SDS011;29398;45.328;5.558;2023-12-28T04:22:53;25.30;;;20.25;;
7737;SDS011;29398;45.328;5.558;2023-12-28T04:23:54;24.77;;;20.23;;
7737;SDS011;29398;45.328;5.558;2023-12-28T04:24:56;23.33;;;19.52;;
7737;SDS011;29398;45.328;5.558;2023-12-28T04:25:58;24.17;;;20.45;;
7737;SDS011;29398;45.328;5.558;2023-12-28T04:26:59;25.70;;;20.73;;
7737;SDS011;29398;45.328;5.558;2023-12-28T04:28:02;25.52;;;20.80;;
7737;SDS011;29398;45.328;5.558;2023-12-28T04:29:04;26.88;;;20.50;;
7737;SDS011;29398;45.328;5.558;2023-12-28T04:30:11;26.50;;;20.70;;
7737;SDS011;29398;45.328;5.558;2023-12-28T04:31:14;25.30;;;20.83;;
7737;SDS011;29398;45.328;5.558;2023-12-28T04:32:15;26.80;;;20.95;;
7737;SDS011;29398;45.328;5.558;2023-12-28T04:33:18;27.08;;;20.58;;
7737;SDS011;29398;45.328;5.558;2023-12-28T04:34:19;25.95;;;20.42;;
7737;SDS011;29398;45.328;5.558;2023-12-28T04:35:22;27.73;;;21.50;;
7737;SDS011;29398;45.328;5.558;2023-12-28T04:36:23;24.63;;;20.30;;
7737;SDS011;29398;45.328;5.558;2023-12-28T04:37:25;23.92;;;20.27;;
7737;SDS011;29398;45.328;5.558;2023-12-28T04:38:27;24.92;;;19.80;;
7737;SDS011;29398;45.328;5.558;2023-12-28T04:39:29;25.17;;;20.73;;
7737;SDS011;29398;45.328;5.558;2023-12-28T04:40:30;26.30;;;20.75;;
7737;SDS011;29398;45.328;5.558;2023-12-28T04:41:33;26.83;;;19.55;;
7737;SDS011;29398;45.328;5.558;2023-12-28T04:42:34;23.48;;;19.95;;
7737;SDS011;29398;45.328;5.558;2023-12-28T04:43:37;28.15;;;20.80;;
7737;SDS011;29398;45.328;5.558;2023-12-28T04:44:40;25.75;;;21.05;;
7737;SDS011;29398;45.328;5.558;2023-12-28T04:45:42;28.02;;;21.30;;
7737;SDS011;29398;45.328;5.558;2023-12-28T04:46:43;26.15;;;20.75;;
7737;SDS011;29398;45.328;5.558;2023-12-28T04:47:45;26.30;;;19.52;;
7737;SDS011;29398;45.328;5.558;2023-12-28T04:48:46;23.65;;;20.30;;
7737;SDS011;29398;45.328;5.558;2023-12-28T04:49:48;24.02;;;19.42;;
7737;SDS011;29398;45.328;5.558;2023-12-28T04:50:49;25.13;;;20.10;;
7737;SDS011;29398;45.328;5.558;2023-12-28T04:51:52;23.25;;;19.90;;
7737;SDS011;29398;45.328;5.558;2023-12-28T04:53:12;24.17;;;19.92;;
7737;SDS011;29398;45.328;5.558;2023-12-28T04:54:14;23.83;;;19.88;;
7737;SDS011;29398;45.328;5.558;2023-12-28T04:55:16;23.75;;;19.20;;
7737;SDS011;29398;45.328;5.558;2023-12-28T04:56:19;26.10;;;20.17;;
7737;SDS011;29398;45.328;5.558;2023-12-28T04:57:20;28.60;;;19.50;;
7737;SDS011;29398;45.328;5.558;2023-12-28T04:58:24;27.25;;;20.58;;
7737;SDS011;29398;45.328;5.558;2023-12-28T04:59:25;24.35;;;20.35;;
7737;SDS011;29398;45.328;5.558;2023-12-28T05:00:31;23.77;;;19.80;;
7737;SDS011;29398;45.328;5.558;2023-12-28T05:01:32;25.08;;;19.83;;
7737;SDS011;29398;45.328;5.558;2023-12-28T05:02:33;24.95;;;20.13;;
7737;SDS011;29398;45.328;5.558;2023-12-28T05:03:35;23.77;;;19.35;;
7737;SDS011;29398;45.328;5.558;2023-12-28T05:04:37;27.13;;;20.52;;
7737;SDS011;29398;45.328;5.558;2023-12-28T05:05:39;21.83;;;18.45;;
7737;SDS011;29398;45.328;5.558;2023-12-28T05:06:40;29.85;;;20.70;;
7737;SDS011;29398;45.328;5.558;2023-12-28T05:07:42;24.35;;;19.63;;
7737;SDS011;29398;45.328;5.558;2023-12-28T05:08:43;24.88;;;20.63;;
7737;SDS011;29398;45.328;5.558;2023-12-28T05:09:44;22.30;;;19.35;;
7737;SDS011;29398;45.328;5.558;2023-12-28T05:10:46;26.63;;;20.80;;
7737;SDS011;29398;45.328;5.558;2023-12-28T05:11:47;24.98;;;20.02;;
7737;SDS011;29398;45.328;5.558;2023-12-28T05:12:49;23.40;;;18.42;;
7737;SDS011;29398;45.328;5.558;2023-12-28T05:13:50;23.17;;;18.08;;
7737;SDS011;29398;45.328;5.558;2023-12-28T05:14:52;23.08;;;19.17;;
7737;SDS011;29398;45.328;5.558;2023-12-28T05:15:55;24.13;;;18.63;;
7737;SDS011;29398;45.328;5.558;2023-12-28T05:16:57;25.98;;;19.92;;
7737;SDS011;29398;45.328;5.558;2023-12-28T05:17:58;24.20;;;18.80;;
7737;SDS011;29398;45.328;5.558;2023-12-28T05:19:00;23.17;;;18.35;;
7737;SDS011;29398;45.328;5.558;2023-12-28T05:20:02;22.42;;;18.35;;
7737;SDS011;29398;45.328;5.558;2023-12-28T05:21:04;23.83;;;20.17;;
7737;SDS011;29398;45.328;5.558;2023-12-28T05:22:06;23.17;;;18.25;;
7737;SDS011;29398;45.328;5.558;2023-12-28T05:23:11;22.02;;;18.35;;
7737;SDS011;29398;45.328;5.558;2023-12-28T05:24:13;26.13;;;18.23;;
7737;SDS011;29398;45.328;5.558;2023-12-28T05:25:32;23.05;;;18.60;;
7737;SDS011;29398;45.328;5.558;2023-12-28T05:26:34;22.90;;;17.92;;
7737;SDS011;29398;45.328;5.558;2023-12-28T05:27:36;20.58;;;17.48;;
7737;SDS011;29398;45.328;5.558;2023-12-28T05:28:37;23.70;;;17.65;;
7737;SDS011;29398;45.328;5.558;2023-12-28T05:29:39;22.13;;;18.17;;
7737;SDS011;29398;45.328;5.558;2023-12-28T05:30:41;23.85;;;18.65;;
7737;SDS011;29398;45.328;5.558;2023-12-28T05:31:43;23.75;;;18.10;;
7737;SDS011;29398;45.328;5.558;2023-12-28T05:32:44;22.85;;;17.42;;
7737;SDS011;29398;45.328;5.558;2023-12-28T05:33:46;21.52;;;17.92;;
7737;SDS011;29398;45.328;5.558;2023-12-28T05:34:47;20.80;;;17.02;;
7737;SDS011;29398;45.328;5.558;2023-12-28T05:35:50;20.73;;;17.33;;
7737;SDS011;29398;45.328;5.558;2023-12-28T05:36:51;20.83;;;16.90;;
7737;SDS011;29398;45.328;5.558;2023-12-28T05:37:53;22.85;;;17.77;;
7737;SDS011;29398;45.328;5.558;2023-12-28T05:38:54;22.77;;;18.67;;
7737;SDS011;29398;45.328;5.558;2023-12-28T05:39:56;23.55;;;18.25;;
7737;SDS011;29398;45.328;5.558;2023-12-28T05:40:58;23.55;;;18.25;;
7737;SDS011;29398;45.328;5.558;2023-12-28T05:42:00;23.23;;;17.73;;
7737;SDS011;29398;45.328;5.558;2023-12-28T05:43:01;21.13;;;17.70;;
7737;SDS011;29398;45.328;5.558;2023-12-28T05:44:02;25.38;;;17.60;;
7737;SDS011;29398;45.328;5.558;2023-12-28T05:45:04;20.65;;;16.45;;
7737;SDS011;29398;45.328;5.558;2023-12-28T05:46:06;20.95;;;17.42;;
7737;SDS011;29398;45.328;5.558;2023-12-28T05:47:09;21.27;;;17.42;;
7737;SDS011;29398;45.328;5.558;2023-12-28T05:48:10;19.67;;;16.38;;
7737;SDS011;29398;45.328;5.558;2023-12-28T05:49:12;21.00;;;17.20;;
7737;SDS011;29398;45.328;5.558;2023-12-28T05:50:13;21.60;;;16.38;;
7737;SDS011;29398;45.328;5.558;2023-12-28T05:51:15;23.30;;;17.13;;
7737;SDS011;29398;45.328;5.558;2023-12-28T05:52:16;20.73;;;16.77;;
7737;SDS011;29398;45.328;5.558;2023-12-28T05:53:19;21.38;;;16.02;;
7737;SDS011;29398;45.328;5.558;2023-12-28T05:54:20;22.45;;;16.50;;
7737;SDS011;29398;45.328;5.558;2023-12-28T05:55:22;20.23;;;16.42;;
7737;SDS011;29398;45.328;5.558;2023-12-28T05:56:23;20.58;;;16.75;;
7737;SDS011;29398;45.328;5.558;2023-12-28T05:57:25;22.98;;;16.90;;
7737;SDS011;29398;45.328;5.558;2023-12-28T05:58:30;21.17;;;17.40;;
7737;SDS011;29398;45.328;5.558;2023-12-28T05:59:32;20.92;;;17.70;;
7737;SDS011;29398;45.328;5.558;2023-12-28T06:00:33;22.45;;;17.42;;
7737;SDS011;29398;45.328;5.558;2023-12-28T06:01:41;22.45;;;18.15;;
7737;SDS011;29398;45.328;5.558;2023-12-28T06:02:44;26.33;;;16.98;;
7737;SDS011;29398;45.328;5.558;2023-12-28T06:03:50;24.48;;;19.08;;
7737;SDS011;29398;45.328;5.558;2023-12-28T06:04:52;21.80;;;17.52;;
7737;SDS011;29398;45.328;5.558;2023-12-28T06:05:54;22.23;;;17.83;;
7737;SDS011;29398;45.328;5.558;2023-12-28T06:06:55;22.20;;;17.73;;
7737;SDS011;29398;45.328;5.558;2023-12-28T06:07:57;22.13;;;17.77;;
7737;SDS011;29398;45.328;5.558;2023-12-28T06:08:58;26.27;;;18.85;;
7737;SDS011;29398;45.328;5.558;2023-12-28T06:10:00;25.77;;;18.98;;
7737;SDS011;29398;45.328;5.558;2023-12-28T06:11:02;23.05;;;18.52;;